Latest Weather Observations for kunanyi / Mount Wellington

IDT60801

Issued at 11:51 pm EST Tuesday 7 April 2020 (issued every 10 minutes, with the page automatically refreshed every 10 minutes)

About weather observations | Map of weather stations | Latest weather observations for TAS | Other Formats
Station Details ID: 094087 Name: KUNANYI (MOUNT WELLINGTON PINNACLE) Lat: -42.90 Lon: 147.24 Height: 1260.47 m
Data from the previous 72 hours. | See also: Recent months at kunanyi / Mount Wellington
Date/Time
EST
Temp
°C
App
Temp
°C
Dew
Point
°C
Rel
Hum
%
Delta-T
°C
Wind Press
QNH
hPa
Press
MSL
hPa
Rain since
9am
mm
Dir  Spd
km/h
Gust
km/h
Spd
kts
Gust
kts
07/11:30pm 2.7 -4.2 2.7 100 0.0 SW 28 35 15 19 - - 1.6
07/11:00pm 3.0 -1.7 3.0 100 0.0 WSW 17 26 9 14 - - 1.4
07/10:30pm 3.3 -1.0 3.3 100 0.0 SW 15 20 8 11 - - 1.2
07/10:00pm 3.5 -1.1 3.5 100 0.0 SW 17 22 9 12 - - 1.0
07/09:30pm 3.7 -0.9 3.7 100 0.0 SW 17 22 9 12 - - 0.8
07/09:00pm 3.7 -0.5 3.7 100 0.0 SW 15 24 8 13 - - 0.4
07/08:30pm 3.6 -0.3 3.6 100 0.0 SW 13 20 7 11 - - 0.4
07/08:00pm 3.6 -1.4 3.6 100 0.0 SW 19 24 10 13 - - 0.2
07/07:30pm 3.5 -1.7 3.5 100 0.0 WSW 20 26 11 14 - - 0.2
07/07:00pm 3.6 -2.0 3.6 100 0.0 WSW 22 33 12 18 - - 0.2
07/06:30pm 3.8 -1.2 3.8 100 0.0 SW 19 26 10 14 - - 0.2
07/06:00pm 4.1 -0.4 4.1 100 0.0 SW 17 26 9 14 - - 0.2
07/05:30pm 4.2 0.1 4.1 99 0.0 SSE 15 24 8 13 - - 0.2
07/05:00pm 4.4 -1.5 3.8 96 0.3 SW 24 30 13 16 - - 0.2
07/04:30pm 5.0 -0.1 4.1 94 0.4 SW 20 32 11 17 - - 0.2
07/04:00pm 5.5 -0.1 3.7 88 0.8 SW 22 28 12 15 - - 0.2
07/03:30pm 5.9 0.9 4.4 90 0.7 SW 20 26 11 14 - - 0.2
07/03:00pm 6.1 1.7 4.7 91 0.7 SW 17 22 9 12 - - 0.2
07/02:30pm 5.5 1.4 4.2 91 0.6 SW 15 22 8 12 - - 0.2
07/02:00pm 5.1 1.0 4.4 95 0.3 WSW 15 24 8 13 - - 0.2
07/01:30pm 5.5 1.4 4.6 94 0.4 SW 15 26 8 14 - - 0.2
07/01:00pm 5.8 0.9 4.1 89 0.8 SSW 19 28 10 15 - - 0.2
07/12:30pm 5.9 1.0 3.9 87 0.9 SW 19 30 10 16 - - 0.2
07/12:00pm 6.8 1.9 4.3 84 1.2 SW 19 28 10 15 - - 0.2
07/11:30am 6.0 0.8 3.8 86 1.0 SW 20 32 11 17 - - 0.2
07/11:00am 5.6 0.7 3.9 89 0.8 SW 19 24 10 13 - - 0.2
07/10:30am 5.8 0.3 4.1 89 0.8 SW 22 32 12 17 - - 0.2
07/10:00am 5.6 0.8 5.5 99 0.0 SW 20 28 11 15 - - 0.2
07/09:30am 4.2 -0.9 4.2 100 0.0 SW 20 26 11 14 - - 0.0
07/09:00am 4.2 -0.7 4.2 100 0.0 SW 19 22 10 12 - - 0.6
07/08:30am 3.4 -1.8 3.4 100 0.0 SW 20 26 11 14 - - 0.6
07/08:00am 2.2 -5.5 2.2 100 0.0 SW 32 35 17 19 - - 0.6
07/07:30am 1.7 -5.0 1.7 100 0.0 SSW 26 32 14 17 - - 0.6
07/07:00am 1.4 -5.3 1.4 100 0.0 SSW 26 28 14 15 - - 0.6
07/06:30am 1.1 -6.0 1.1 100 0.0 SSW 28 33 15 18 - - 0.6
07/06:00am 1.0 -7.1 1.0 100 0.0 SSW 33 39 18 21 - - 0.4
07/05:30am 0.7 -7.4 0.7 100 0.0 SSW 33 39 18 21 - - 0.4
07/05:00am 0.3 -7.9 0.3 100 0.0 SSW 33 39 18 21 - - 0.4
07/04:30am -0.1 -8.4 -0.1 100 0.0 SSW 33 39 18 21 - - 0.4
07/04:00am -0.3 -8.0 -0.3 100 0.0 SW 30 35 16 19 - - 0.4
07/03:30am -0.1 -7.0 -0.1 100 0.0 SW 26 32 14 17 - - 0.4
07/03:00am -0.3 -6.9 -0.3 100 0.0 SW 24 30 13 16 - - 0.4
07/02:30am -0.4 -6.1 -0.4 100 0.0 SW 19 24 10 13 - - 0.4
07/02:00am 0.0 -5.8 0.0 100 0.0 WSW 20 24 11 13 - - 0.2
07/01:30am -0.1 -6.7 -0.1 100 0.0 SW 24 30 13 16 - - 0.2
07/01:00am -0.1 -5.7 -0.1 100 0.0 SW 19 24 10 13 - - 0.2
07/12:30am 0.2 -5.9 0.2 100 0.0 SW 22 32 12 17 - - 0.2
07/12:00am 0.3 -5.8 0.3 100 0.0 SW 22 28 12 15 - - 0.2
 
Date/Time
EST
Temp
°C
App
Temp
°C
Dew
Point
°C
Rel
Hum
%
Delta-T
°C
Wind Press
QNH
hPa
Press
MSL
hPa
Rain since
9am
mm
Dir  Spd
km/h
Gust
km/h
Spd
kts
Gust
kts
06/11:30pm 0.3 -6.6 0.3 100 0.0 SW 26 30 14 16 - - 0.2
06/11:00pm 0.6 -6.6 0.6 100 0.0 SW 28 39 15 21 - - 0.2
06/10:30pm 0.6 -6.2 0.6 100 0.0 SW 26 35 14 19 - - 0.2
06/10:00pm 0.6 -7.0 0.6 100 0.0 SW 30 39 16 21 - - 0.2
06/09:30pm 0.7 -7.3 0.7 100 0.0 SW 32 43 17 23 - - 0.2
06/09:00pm 0.6 -7.6 0.6 100 0.0 SW 33 41 18 22 - - 0.2
06/08:30pm 0.5 -7.7 0.5 100 0.0 SW 33 41 18 22 - - 0.2
06/08:00pm 0.5 -9.2 0.5 100 0.0 SW 41 52 22 28 - - 0.2
06/07:42pm 0.6 -8.7 0.6 100 0.0 SW 39 57 21 31 - - 0.2
06/07:30pm 0.6 -9.1 0.6 100 0.0 SW 41 52 22 28 - - 0.2
06/07:00pm 0.6 -10.0 0.5 99 0.0 SW 46 61 25 33 - - 0.2
06/06:30pm 0.8 -10.2 0.4 97 0.2 SW 48 61 26 33 - - 0.2
06/06:07pm 1.1 -8.9 1.0 99 0.0 SW 43 61 23 33 - - 0.2
06/06:00pm 1.1 -8.9 0.8 98 0.1 SW 43 56 23 30 - - 0.2
06/05:30pm 1.4 -9.6 0.8 96 0.2 SW 48 59 26 32 - - 0.2
06/05:00pm 1.8 -9.2 0.9 94 0.4 SW 48 65 26 35 - - 0.2
06/04:30pm 1.9 -8.2 0.6 91 0.5 SW 43 54 23 29 - - 0.2
06/04:00pm 2.2 -6.3 0.7 90 0.6 WSW 35 43 19 23 - - 0.2
06/03:30pm 3.0 -5.9 0.7 85 0.9 SW 37 48 20 26 - - 0.2
06/03:00pm 3.0 -4.3 0.1 81 1.2 WSW 28 35 15 19 - - 0.2
06/02:48pm 3.9 -3.8 -0.1 75 1.6 SW 30 48 16 26 - - 0.2
06/02:30pm 3.9 -4.7 0.2 77 1.5 WSW 35 48 19 26 - - 0.2
06/02:00pm 3.6 -5.0 0.0 77 1.5 WSW 35 50 19 27 - - 0.2
06/01:30pm 4.1 -4.4 1.0 80 1.3 WSW 35 46 19 25 - - 0.2
06/01:00pm 2.5 -4.0 0.1 84 1.0 WSW 24 39 13 21 - - 0.2
06/12:30pm 2.4 -4.6 -0.4 82 1.1 WSW 26 33 14 18 - - 0.2
06/12:00pm 2.9 -5.2 0.0 81 1.2 WSW 32 48 17 26 - - 0.2
06/11:30am 2.4 -5.7 0.9 90 0.6 WSW 33 44 18 24 - - 0.2
06/11:11am 1.5 -5.6 1.2 98 0.1 WSW 28 50 15 27 - - 0.2
06/11:00am 1.6 -5.1 1.6 100 0.0 WSW 26 37 14 20 - - 0.2
06/10:30am 1.9 -5.5 1.9 100 0.0 SW 30 41 16 22 - - 0.2
06/10:00am 2.0 -6.3 2.0 100 0.0 SW 35 46 19 25 - - 0.2
06/09:30am 1.6 -8.9 1.6 100 0.0 SW 46 57 25 31 - - 0.2
06/09:00am 1.4 -8.2 1.4 100 0.0 SW 41 52 22 28 - - 0.8
06/08:30am 0.9 -9.1 0.9 100 0.0 WSW 43 54 23 29 - - 0.8
06/08:00am 0.7 -9.5 0.7 100 0.0 WSW 44 56 24 30 - - 0.8
06/07:38am 0.5 -9.8 0.5 100 0.0 WSW 44 63 24 34 - - 0.8
06/07:30am 0.4 -11.4 0.4 100 0.0 WSW 52 63 28 34 - - 0.8
06/07:00am 0.2 -13.7 0.2 100 0.0 WSW 63 72 34 39 - - 0.2
06/06:30am 0.1 -13.5 0.1 100 0.0 WSW 61 76 33 41 - - 0.2
06/06:00am 0.0 -12.2 0.0 100 0.0 WSW 54 67 29 36 - - 0.2
06/05:31am 0.0 -10.7 0.0 100 0.0 WSW 46 67 25 36 - - 0.2
06/05:30am 0.0 -10.7 0.0 100 0.0 WSW 46 61 25 33 - - 0.2
06/05:01am -0.1 -12.4 -0.1 100 0.0 SW 54 72 29 39 - - 0.2
06/05:00am -0.1 -12.7 -0.1 100 0.0 SW 56 72 30 39 - - 0.2
06/04:30am -0.2 -12.9 -0.2 100 0.0 SW 56 76 30 41 - - 0.2
06/04:00am -0.5 -13.8 -0.6 99 0.0 WSW 59 78 32 42 - - 0.2
06/03:54am -0.5 -13.8 -0.5 100 0.0 WSW 59 78 32 42 - - 0.2
06/03:30am -0.7 -13.4 -0.7 100 0.0 WSW 56 72 30 39 - - 0.2
06/03:04am -0.8 -13.2 -0.9 99 0.0 SW 54 72 29 39 - - 0.2
06/03:00am -0.9 -13.3 -1.0 99 0.0 SW 54 67 29 36 - - 0.2
06/02:30am -0.9 -13.9 -1.2 98 0.1 WSW 57 76 31 41 - - 0.2
06/02:00am -1.3 -15.4 -1.4 99 0.0 WSW 63 83 34 45 - - 0.2
06/01:56am -1.2 -15.3 -1.3 99 0.0 WSW 63 83 34 45 - - 0.2
06/01:30am -1.3 -15.5 -1.7 97 0.1 WSW 63 78 34 42 - - 0.2
06/01:00am -1.5 -16.1 -2.1 96 0.1 WSW 65 80 35 43 - - 0.2
06/12:32am -1.7 -14.8 -2.4 95 0.2 WSW 57 78 31 42 - - 0.2
06/12:30am -1.8 -15.0 -2.5 95 0.2 WSW 57 70 31 38 - - 0.2
06/12:16am -1.7 -16.4 -2.4 95 0.2 WSW 65 83 35 45 - - 0.2
06/12:00am -1.9 -16.2 -2.6 95 0.2 WSW 63 78 34 42 - - 0.2
 
Date/Time
EST
Temp
°C
App
Temp
°C
Dew
Point
°C
Rel
Hum
%
Delta-T
°C
Wind Press
QNH
hPa
Press
MSL
hPa
Rain since
9am
mm
Dir  Spd
km/h
Gust
km/h
Spd
kts
Gust
kts
05/11:30pm -2.1 -16.4 -2.8 95 0.2 WSW 63 78 34 42 - - 0.2
05/11:15pm -2.0 -15.6 -3.0 93 0.3 WSW 59 83 32 45 - - 0.2
05/11:00pm -2.1 -15.3 -3.2 92 0.3 WSW 57 72 31 39 - - 0.2
05/10:30pm -2.3 -15.5 -2.8 96 0.1 WSW 57 70 31 38 - - 0.2
05/10:00pm -2.1 -16.4 -2.5 97 0.0 WSW 63 83 34 45 - - 0.2
05/09:58pm -2.1 -15.6 -2.5 97 0.0 WSW 59 83 32 45 - - 0.2
05/09:30pm -2.1 -15.7 -3.1 93 0.3 WSW 59 76 32 41 - - 0.2
05/09:06pm -2.4 -13.9 -2.8 97 0.0 WSW 48 69 26 37 - - 0.2
05/09:00pm -2.3 -13.4 -2.7 97 0.0 WSW 46 56 25 30 - - 0.2
05/08:32pm -2.2 -14.8 -3.0 94 0.2 WSW 54 76 29 41 - - 0.2
05/08:30pm -2.3 -14.6 -3.1 94 0.2 WSW 52 65 28 35 - - 0.2
05/08:25pm -2.3 -14.2 -2.8 96 0.1 WSW 50 69 27 37 - - 0.2
05/08:00pm -2.3 -13.3 -2.4 99 -0.1 WSW 46 57 25 31 - - 0.2
05/07:33pm -2.0 -12.5 -2.3 98 0.0 WSW 43 61 23 33 - - 0.2
05/07:30pm -2.1 -12.8 -2.4 98 0.0 WSW 44 61 24 33 - - 0.2
05/07:00pm -2.2 -14.8 -2.5 98 0.0 WSW 54 65 29 35 - - 0.2
05/06:39pm -1.9 -12.9 -2.0 99 -0.1 WSW 46 65 25 35 - - 0.2
05/06:30pm -1.9 -12.5 -2.2 98 0.0 WSW 44 56 24 30 - - 0.2
05/06:00pm -1.6 -11.7 -2.6 93 0.3 WSW 41 61 22 33 - - 0.2
05/05:37pm -1.5 -10.0 -2.1 96 0.1 WSW 33 57 18 31 - - 0.2
05/05:30pm -1.4 -9.7 -1.8 97 0.1 W 32 43 17 23 - - 0.2
05/05:00pm -1.3 -8.8 -1.7 97 0.1 WSW 28 41 15 22 - - 0.2
05/04:30pm -0.4 -8.8 -2.8 84 0.9 WSW 32 44 17 24 - - 0.2
05/04:00pm 0.0 -8.3 -1.9 87 0.7 W 32 54 17 29 - - 0.2
05/03:57pm -0.3 -8.9 -2.2 87 0.7 W 33 54 18 29 - - 0.2
05/03:30pm -0.6 -9.0 -2.3 88 0.6 WSW 32 46 17 25 - - 0.2
05/03:00pm 0.1 -10.0 -2.4 83 0.9 WSW 41 57 22 31 - - 0.2
05/02:35pm 0.7 -8.9 -1.8 83 1.0 WSW 39 57 21 31 - - 0.2
05/02:30pm 0.7 -9.9 -1.5 85 0.9 WSW 44 59 24 32 - - 0.2
05/02:16pm 0.1 -9.6 -2.1 85 0.8 WSW 39 57 21 31 - - 0.2
05/02:00pm -0.5 -10.9 -1.6 92 0.4 WSW 43 65 23 35 - - 0.2
05/01:57pm -0.7 -11.7 -2.1 90 0.5 WSW 46 65 25 35 - - 0.2
05/01:40pm -0.3 -13.6 -1.1 94 0.3 WSW 59 80 32 43 - - 0.2
05/01:30pm -0.7 -14.8 -1.4 95 0.2 WSW 63 78 34 42 - - 0.2
05/01:00pm -1.6 -14.5 -1.9 98 0.0 WSW 56 67 30 36 - - 0.2
05/12:48pm -1.9 -14.8 -2.3 97 0.1 WSW 56 74 30 40 - - 0.0
05/12:39pm -1.2 -11.6 -1.9 95 0.2 SW 43 61 23 33 - - 0.0
05/12:30pm 0.0 -10.5 -1.1 92 0.4 WSW 44 59 24 32 - - 0.0
05/12:00pm -0.1 -8.3 -0.7 96 0.2 WSW 32 44 17 24 - - 0.0
05/11:30am -0.7 -9.9 -1.0 98 0.1 WSW 37 46 20 25 - - 0.0
05/11:00am -1.4 -11.8 -2.0 96 0.2 WSW 43 54 23 29 - - 0.0
05/10:30am -1.9 -12.5 -3.3 90 0.4 SW 43 52 23 28 - - 0.0
05/10:00am -1.9 -10.6 -3.3 90 0.4 WSW 33 43 18 23 - - 0.0
05/09:30am -1.9 -8.8 -2.5 96 0.1 SW 24 32 13 17 - - 0.0
05/09:00am -2.1 -8.1 -2.8 95 0.2 WSW 19 26 10 14 - - 1.6
05/08:30am -2.2 -10.2 -2.6 97 0.0 WSW 30 35 16 19 - - 1.6
05/08:00am -2.4 -10.1 -3.1 95 0.1 WSW 28 37 15 20 - - 1.6
05/07:30am -2.6 -11.6 -3.0 97 0.0 W 35 39 19 21 - - 1.6
05/07:00am -2.9 -11.6 -3.2 98 0.0 W 33 43 18 23 - - 1.6
05/06:30am -3.0 -11.5 -3.3 98 0.0 WNW 32 41 17 22 - - 1.6
05/06:00am -3.0 -10.7 -3.3 98 0.0 WNW 28 37 15 20 - - 1.6
05/05:30am -3.1 -13.0 -3.5 97 0.0 WNW 39 48 21 26 - - 1.6
05/05:00am -3.1 -14.3 -3.5 97 0.0 WNW 46 57 25 31 - - 1.6
05/04:30am -3.1 -12.9 -3.4 98 0.0 WNW 39 50 21 27 - - 1.6
05/04:00am -3.2 -14.0 -3.5 98 0.0 WNW 44 56 24 30 - - 1.6
05/03:30am -3.1 -13.9 -3.4 98 0.0 WNW 44 59 24 32 - - 1.6
05/03:12am -3.0 -14.5 -3.3 98 0.0 WNW 48 67 26 36 - - 1.6
05/03:00am -3.1 -16.2 -3.4 98 0.0 WNW 56 69 30 37 - - 1.6
05/03:30am -3.1 -16.2 -3.4 98 0.0 WNW 56 74 30 40 - - 1.6
05/03:01am -3.1 -16.7 -3.4 98 0.0 WNW 59 78 32 42 - - 1.6
05/03:00am -3.1 -17.1 -3.4 98 0.0 WNW 61 78 33 42 - - 1.6
05/02:45am -3.0 -15.7 -3.3 98 0.0 WNW 54 76 29 41 - - 1.6
05/02:30am -3.0 -15.7 -3.3 98 0.0 WNW 54 67 29 36 - - 1.6
05/02:00am -3.0 -17.0 -3.3 98 0.0 W 61 82 33 44 - - 1.6
05/01:58am -3.0 -16.6 -3.3 98 0.0 WNW 59 82 32 44 - - 1.6
05/01:30am -3.1 -16.8 -3.5 97 0.0 WNW 59 76 32 41 - - 1.6
05/01:10am -2.8 -15.8 -3.1 98 0.0 WNW 56 74 30 40 - - 1.6
05/01:00am -2.9 -16.1 -3.0 99 -0.1 WNW 57 72 31 39 - - 1.6

Other formats

Comma delimited format used in spreadsheet applications
http://www.bom.gov.au/fwo/IDT60801/IDT60801.95979.axf

JavaScript Object Notation format (JSON) in row-major order
http://www.bom.gov.au/fwo/IDT60801/IDT60801.95979.json

Data quality

Most of these data are generated automatically and are frequently updated. Quality checks on data are not normally performed. It is possible for incorrect values to appear. Refer to information at About Latest Weather Observations and please check the disclaimer before using these data.